sensor_id;sensor_type;location;lat;lon;timestamp;pressure;altitude;pressure_sealevel;temperature;humidity
12358;BME280;6243;51.244;6.774;2023-09-18T00:01:10;115150.97;;;-141.28;42.42
12358;BME280;6243;51.244;6.774;2023-09-18T00:03:36;115150.97;;;-141.28;42.53
12358;BME280;6243;51.244;6.774;2023-09-18T00:06:02;115150.97;;;-141.28;42.60
12358;BME280;6243;51.244;6.774;2023-09-18T00:08:27;115150.97;;;-141.28;42.91
12358;BME280;6243;51.244;6.774;2023-09-18T00:10:55;115150.97;;;-141.28;43.21
12358;BME280;6243;51.244;6.774;2023-09-18T00:13:21;115150.97;;;-141.28;42.68
12358;BME280;6243;51.244;6.774;2023-09-18T00:15:47;115150.97;;;-141.28;42.50
12358;BME280;6243;51.244;6.774;2023-09-18T00:18:13;115150.97;;;-141.28;42.62
12358;BME280;6243;51.244;6.774;2023-09-18T00:20:39;115150.97;;;-141.28;42.85
12358;BME280;6243;51.244;6.774;2023-09-18T00:23:04;115150.97;;;-141.28;42.72
12358;BME280;6243;51.244;6.774;2023-09-18T00:25:30;115150.97;;;-141.28;42.78
12358;BME280;6243;51.244;6.774;2023-09-18T00:27:57;115150.97;;;-141.28;42.51
12358;BME280;6243;51.244;6.774;2023-09-18T00:30:23;115150.97;;;-141.28;42.22
12358;BME280;6243;51.244;6.774;2023-09-18T00:32:48;115150.97;;;-141.28;42.24
12358;BME280;6243;51.244;6.774;2023-09-18T00:35:14;115150.97;;;-141.28;42.03
12358;BME280;6243;51.244;6.774;2023-09-18T00:37:40;115150.97;;;-141.28;42.15
12358;BME280;6243;51.244;6.774;2023-09-18T00:40:06;115150.97;;;-141.28;42.36
12358;BME280;6243;51.244;6.774;2023-09-18T00:42:32;115150.97;;;-141.28;41.98
12358;BME280;6243;51.244;6.774;2023-09-18T00:44:59;115150.97;;;-141.28;41.96
12358;BME280;6243;51.244;6.774;2023-09-18T00:47:25;115150.97;;;-141.28;41.82
12358;BME280;6243;51.244;6.774;2023-09-18T00:49:52;115150.97;;;-141.28;43.18
12358;BME280;6243;51.244;6.774;2023-09-18T00:52:19;115150.97;;;-141.28;42.45
12358;BME280;6243;51.244;6.774;2023-09-18T00:54:46;115150.97;;;-141.28;41.60
12358;BME280;6243;51.244;6.774;2023-09-18T00:57:12;115150.97;;;-141.28;41.57
12358;BME280;6243;51.244;6.774;2023-09-18T00:59:38;115150.97;;;-141.28;41.50
12358;BME280;6243;51.244;6.774;2023-09-18T01:02:06;115150.97;;;-141.28;41.39
12358;BME280;6243;51.244;6.774;2023-09-18T01:04:33;115150.97;;;-141.28;41.62
12358;BME280;6243;51.244;6.774;2023-09-18T01:06:58;115150.97;;;-141.28;43.82
12358;BME280;6243;51.244;6.774;2023-09-18T01:09:24;115150.97;;;-141.28;42.70
12358;BME280;6243;51.244;6.774;2023-09-18T01:11:54;115150.97;;;-141.28;44.34
12358;BME280;6243;51.244;6.774;2023-09-18T01:14:29;115150.97;;;-141.28;44.57
12358;BME280;6243;51.244;6.774;2023-09-18T01:16:57;115150.97;;;-141.28;43.93
12358;BME280;6243;51.244;6.774;2023-09-18T01:19:38;115150.97;;;-141.28;42.30
12358;BME280;6243;51.244;6.774;2023-09-18T01:22:04;115150.97;;;-141.28;42.30
12358;BME280;6243;51.244;6.774;2023-09-18T01:24:32;115150.97;;;-141.28;43.82
12358;BME280;6243;51.244;6.774;2023-09-18T01:26:57;115150.97;;;-141.28;42.60
12358;BME280;6243;51.244;6.774;2023-09-18T01:29:23;115150.97;;;-141.28;43.29
12358;BME280;6243;51.244;6.774;2023-09-18T01:31:49;115150.97;;;-141.28;44.42
12358;BME280;6243;51.244;6.774;2023-09-18T01:34:15;115150.97;;;-141.28;42.08
12358;BME280;6243;51.244;6.774;2023-09-18T01:36:42;115150.97;;;-141.28;41.97
12358;BME280;6243;51.244;6.774;2023-09-18T01:39:09;115150.97;;;-141.28;42.10
12358;BME280;6243;51.244;6.774;2023-09-18T01:41:38;115150.97;;;-141.28;42.23
12358;BME280;6243;51.244;6.774;2023-09-18T01:44:04;115150.97;;;-141.28;42.12
12358;BME280;6243;51.244;6.774;2023-09-18T01:46:30;115150.97;;;-141.28;42.79
12358;BME280;6243;51.244;6.774;2023-09-18T01:48:56;115150.97;;;-141.28;42.30
12358;BME280;6243;51.244;6.774;2023-09-18T01:51:22;115150.97;;;-141.28;42.12
12358;BME280;6243;51.244;6.774;2023-09-18T01:53:48;115150.97;;;-141.28;42.12
12358;BME280;6243;51.244;6.774;2023-09-18T01:56:13;115150.97;;;-141.28;42.74
12358;BME280;6243;51.244;6.774;2023-09-18T01:58:40;115150.97;;;-141.28;43.24
12358;BME280;6243;51.244;6.774;2023-09-18T02:01:06;115150.97;;;-141.28;42.58
12358;BME280;6243;51.244;6.774;2023-09-18T02:03:32;115150.97;;;-141.28;42.99
12358;BME280;6243;51.244;6.774;2023-09-18T02:05:57;115150.97;;;-141.28;42.89
12358;BME280;6243;51.244;6.774;2023-09-18T02:08:23;115150.97;;;-141.28;42.48
12358;BME280;6243;51.244;6.774;2023-09-18T02:10:49;115150.97;;;-141.28;42.05
12358;BME280;6243;51.244;6.774;2023-09-18T02:13:14;115150.97;;;-141.28;41.80
12358;BME280;6243;51.244;6.774;2023-09-18T02:15:41;115150.97;;;-141.28;42.43
12358;BME280;6243;51.244;6.774;2023-09-18T02:18:08;115150.97;;;-141.28;43.02
12358;BME280;6243;51.244;6.774;2023-09-18T02:20:40;115150.97;;;-141.28;42.05
12358;BME280;6243;51.244;6.774;2023-09-18T02:23:06;115150.97;;;-141.28;42.79
12358;BME280;6243;51.244;6.774;2023-09-18T02:25:31;115150.97;;;-141.28;43.22
12358;BME280;6243;51.244;6.774;2023-09-18T02:27:57;115150.97;;;-141.28;43.54
12358;BME280;6243;51.244;6.774;2023-09-18T02:30:22;115150.97;;;-141.28;43.64
12358;BME280;6243;51.244;6.774;2023-09-18T02:32:49;115150.97;;;-141.28;44.30
12358;BME280;6243;51.244;6.774;2023-09-18T02:35:15;115150.97;;;-141.28;44.78
12358;BME280;6243;51.244;6.774;2023-09-18T02:37:41;115150.97;;;-141.28;43.94
12358;BME280;6243;51.244;6.774;2023-09-18T02:40:07;115150.97;;;-141.28;43.89
12358;BME280;6243;51.244;6.774;2023-09-18T02:42:33;115150.97;;;-141.28;43.99
12358;BME280;6243;51.244;6.774;2023-09-18T02:44:59;115150.97;;;-141.28;43.87
12358;BME280;6243;51.244;6.774;2023-09-18T02:47:25;115150.97;;;-141.28;44.44
12358;BME280;6243;51.244;6.774;2023-09-18T02:49:52;115150.97;;;-141.28;43.84
12358;BME280;6243;51.244;6.774;2023-09-18T02:52:17;115150.97;;;-141.28;44.42
12358;BME280;6243;51.244;6.774;2023-09-18T02:54:43;115150.97;;;-141.28;44.09
12358;BME280;6243;51.244;6.774;2023-09-18T02:57:09;115150.97;;;-141.28;44.29
12358;BME280;6243;51.244;6.774;2023-09-18T02:59:34;115150.97;;;-141.28;44.27
12358;BME280;6243;51.244;6.774;2023-09-18T03:02:00;115150.97;;;-141.28;44.32
12358;BME280;6243;51.244;6.774;2023-09-18T03:04:26;115150.97;;;-141.28;44.90
12358;BME280;6243;51.244;6.774;2023-09-18T03:06:53;115150.97;;;-141.28;44.63
12358;BME280;6243;51.244;6.774;2023-09-18T03:09:19;115150.97;;;-141.28;44.98
12358;BME280;6243;51.244;6.774;2023-09-18T03:11:44;115150.97;;;-141.28;44.58
12358;BME280;6243;51.244;6.774;2023-09-18T03:14:10;115150.97;;;-141.28;44.61
12358;BME280;6243;51.244;6.774;2023-09-18T03:16:35;115150.97;;;-141.28;45.44
12358;BME280;6243;51.244;6.774;2023-09-18T03:19:01;115150.97;;;-141.28;44.60
12358;BME280;6243;51.244;6.774;2023-09-18T03:21:27;115150.97;;;-141.28;44.42
12358;BME280;6243;51.244;6.774;2023-09-18T03:23:54;115150.97;;;-141.28;44.30
12358;BME280;6243;51.244;6.774;2023-09-18T03:26:19;115150.97;;;-141.28;43.78
12358;BME280;6243;51.244;6.774;2023-09-18T03:28:45;115150.97;;;-141.28;43.59
12358;BME280;6243;51.244;6.774;2023-09-18T03:31:11;115150.97;;;-141.28;43.57
12358;BME280;6243;51.244;6.774;2023-09-18T03:33:36;115150.97;;;-141.28;43.13
12358;BME280;6243;51.244;6.774;2023-09-18T03:36:02;115150.97;;;-141.28;42.86
12358;BME280;6243;51.244;6.774;2023-09-18T03:38:27;115150.97;;;-141.28;42.74
12358;BME280;6243;51.244;6.774;2023-09-18T03:40:55;115150.97;;;-141.28;42.67
12358;BME280;6243;51.244;6.774;2023-09-18T03:43:20;115150.97;;;-141.28;42.86
12358;BME280;6243;51.244;6.774;2023-09-18T03:45:46;115150.97;;;-141.28;43.17
12358;BME280;6243;51.244;6.774;2023-09-18T03:48:11;115150.97;;;-141.28;42.91
12358;BME280;6243;51.244;6.774;2023-09-18T03:50:37;115150.97;;;-141.28;43.31
12358;BME280;6243;51.244;6.774;2023-09-18T03:53:03;115150.97;;;-141.28;45.04
12358;BME280;6243;51.244;6.774;2023-09-18T03:55:28;115150.97;;;-141.28;45.16
12358;BME280;6243;51.244;6.774;2023-09-18T03:57:55;115150.97;;;-141.28;45.11
12358;BME280;6243;51.244;6.774;2023-09-18T04:00:21;115150.97;;;-141.28;43.82
12358;BME280;6243;51.244;6.774;2023-09-18T04:02:47;115150.97;;;-141.28;44.30
12358;BME280;6243;51.244;6.774;2023-09-18T04:05:13;115150.97;;;-141.28;44.68
12358;BME280;6243;51.244;6.774;2023-09-18T04:07:38;115150.97;;;-141.28;44.85
12358;BME280;6243;51.244;6.774;2023-09-18T04:10:04;115150.97;;;-141.28;44.22
12358;BME280;6243;51.244;6.774;2023-09-18T04:12:30;115150.97;;;-141.28;44.63
12358;BME280;6243;51.244;6.774;2023-09-18T04:14:57;115150.97;;;-141.28;44.50
12358;BME280;6243;51.244;6.774;2023-09-18T04:17:23;115150.97;;;-141.28;44.65
12358;BME280;6243;51.244;6.774;2023-09-18T04:19:48;115150.97;;;-141.28;44.13
12358;BME280;6243;51.244;6.774;2023-09-18T04:22:14;115150.97;;;-141.28;44.14
12358;BME280;6243;51.244;6.774;2023-09-18T04:24:40;115150.97;;;-141.28;44.43
12358;BME280;6243;51.244;6.774;2023-09-18T04:27:05;115150.97;;;-141.28;44.41
12358;BME280;6243;51.244;6.774;2023-09-18T04:29:31;115150.97;;;-141.28;44.71
12358;BME280;6243;51.244;6.774;2023-09-18T04:31:58;115150.97;;;-141.28;44.25
12358;BME280;6243;51.244;6.774;2023-09-18T04:34:24;115150.97;;;-141.28;43.61
12358;BME280;6243;51.244;6.774;2023-09-18T04:36:49;115150.97;;;-141.28;43.47
12358;BME280;6243;51.244;6.774;2023-09-18T04:39:15;115150.97;;;-141.28;43.87
12358;BME280;6243;51.244;6.774;2023-09-18T04:41:40;115150.97;;;-141.28;44.03
12358;BME280;6243;51.244;6.774;2023-09-18T04:44:06;115150.97;;;-141.28;43.62
12358;BME280;6243;51.244;6.774;2023-09-18T04:46:33;115150.97;;;-141.28;44.20
12358;BME280;6243;51.244;6.774;2023-09-18T04:49:00;115150.97;;;-141.28;44.44
12358;BME280;6243;51.244;6.774;2023-09-18T04:51:26;115150.97;;;-141.28;44.35
12358;BME280;6243;51.244;6.774;2023-09-18T04:53:51;115150.97;;;-141.28;45.53
12358;BME280;6243;51.244;6.774;2023-09-18T04:56:17;115150.97;;;-141.28;46.94
12358;BME280;6243;51.244;6.774;2023-09-18T04:58:43;115150.97;;;-141.28;47.02
12358;BME280;6243;51.244;6.774;2023-09-18T05:01:08;115150.97;;;-141.28;47.82
12358;BME280;6243;51.244;6.774;2023-09-18T05:03:34;115150.97;;;-141.28;47.05
12358;BME280;6243;51.244;6.774;2023-09-18T05:06:02;115150.97;;;-141.28;47.45
12358;BME280;6243;51.244;6.774;2023-09-18T05:08:28;115150.97;;;-141.28;47.85
12358;BME280;6243;51.244;6.774;2023-09-18T05:10:53;115150.97;;;-141.28;48.19
12358;BME280;6243;51.244;6.774;2023-09-18T05:13:19;115150.97;;;-141.28;48.54
12358;BME280;6243;51.244;6.774;2023-09-18T05:15:44;115150.97;;;-141.28;48.75
12358;BME280;6243;51.244;6.774;2023-09-18T05:18:10;115150.97;;;-141.28;48.26
12358;BME280;6243;51.244;6.774;2023-09-18T05:20:36;115150.97;;;-141.28;49.06
12358;BME280;6243;51.244;6.774;2023-09-18T05:23:03;115150.97;;;-141.28;49.33
12358;BME280;6243;51.244;6.774;2023-09-18T05:25:29;115150.97;;;-141.28;50.25
12358;BME280;6243;51.244;6.774;2023-09-18T05:27:56;115150.97;;;-141.28;49.23
12358;BME280;6243;51.244;6.774;2023-09-18T05:30:25;115150.97;;;-141.28;46.97
12358;BME280;6243;51.244;6.774;2023-09-18T05:32:51;115150.97;;;-141.28;46.14
12358;BME280;6243;51.244;6.774;2023-09-18T05:35:16;115150.97;;;-141.28;46.11
12358;BME280;6243;51.244;6.774;2023-09-18T05:37:42;115150.97;;;-141.28;45.63
12358;BME280;6243;51.244;6.774;2023-09-18T05:40:11;115150.97;;;-141.28;45.94
12358;BME280;6243;51.244;6.774;2023-09-18T05:42:37;115150.97;;;-141.28;46.09
12358;BME280;6243;51.244;6.774;2023-09-18T05:45:03;115150.97;;;-141.28;45.95
12358;BME280;6243;51.244;6.774;2023-09-18T05:47:29;115150.97;;;-141.28;46.02
12358;BME280;6243;51.244;6.774;2023-09-18T05:49:55;115150.97;;;-141.28;47.07
12358;BME280;6243;51.244;6.774;2023-09-18T05:52:21;115150.97;;;-141.28;46.89
12358;BME280;6243;51.244;6.774;2023-09-18T05:54:46;115150.97;;;-141.28;47.37
12358;BME280;6243;51.244;6.774;2023-09-18T05:57:13;115150.97;;;-141.28;47.27
12358;BME280;6243;51.244;6.774;2023-09-18T05:59:39;115150.97;;;-141.28;47.02
12358;BME280;6243;51.244;6.774;2023-09-18T06:02:05;115150.97;;;-141.28;47.70
12358;BME280;6243;51.244;6.774;2023-09-18T06:04:30;115150.97;;;-141.28;46.87
12358;BME280;6243;51.244;6.774;2023-09-18T06:06:56;115150.97;;;-141.28;46.54
12358;BME280;6243;51.244;6.774;2023-09-18T06:09:22;115150.97;;;-141.28;46.21
12358;BME280;6243;51.244;6.774;2023-09-18T06:11:47;115150.97;;;-141.28;47.57
12358;BME280;6243;51.244;6.774;2023-09-18T06:14:14;115150.97;;;-141.28;46.65
12358;BME280;6243;51.244;6.774;2023-09-18T06:16:40;115150.97;;;-141.28;46.89
12358;BME280;6243;51.244;6.774;2023-09-18T06:19:06;115150.97;;;-141.28;46.89
12358;BME280;6243;51.244;6.774;2023-09-18T06:21:31;115150.97;;;-141.28;46.84
12358;BME280;6243;51.244;6.774;2023-09-18T06:23:57;115150.97;;;-141.28;46.49
12358;BME280;6243;51.244;6.774;2023-09-18T06:26:23;115150.97;;;-141.28;46.15
12358;BME280;6243;51.244;6.774;2023-09-18T06:28:48;115150.97;;;-141.28;46.02
12358;BME280;6243;51.244;6.774;2023-09-18T06:31:15;115150.97;;;-141.28;46.71
12358;BME280;6243;51.244;6.774;2023-09-18T06:33:41;115150.97;;;-141.28;46.19
12358;BME280;6243;51.244;6.774;2023-09-18T06:36:07;115150.97;;;-141.28;45.23
12358;BME280;6243;51.244;6.774;2023-09-18T06:38:32;115150.97;;;-141.28;45.28
12358;BME280;6243;51.244;6.774;2023-09-18T06:40:58;115150.97;;;-141.28;45.19
12358;BME280;6243;51.244;6.774;2023-09-18T06:43:24;115150.97;;;-141.28;45.03
12358;BME280;6243;51.244;6.774;2023-09-18T06:45:49;115150.97;;;-141.28;45.27
12358;BME280;6243;51.244;6.774;2023-09-18T06:48:16;115150.97;;;-141.28;45.63
12358;BME280;6243;51.244;6.774;2023-09-18T06:50:42;115150.97;;;-141.28;45.16
12358;BME280;6243;51.244;6.774;2023-09-18T06:53:08;115150.97;;;-141.28;45.06
12358;BME280;6243;51.244;6.774;2023-09-18T06:55:33;115150.97;;;-141.28;44.93
12358;BME280;6243;51.244;6.774;2023-09-18T06:57:59;115150.97;;;-141.28;44.32
12358;BME280;6243;51.244;6.774;2023-09-18T07:00:25;115150.97;;;-141.28;44.55
12358;BME280;6243;51.244;6.774;2023-09-18T07:02:50;115150.97;;;-141.28;44.45
12358;BME280;6243;51.244;6.774;2023-09-18T07:05:17;115150.97;;;-141.28;44.38
12358;BME280;6243;51.244;6.774;2023-09-18T07:07:43;115150.97;;;-141.28;45.05
12358;BME280;6243;51.244;6.774;2023-09-18T07:10:09;115150.97;;;-141.28;44.55
12358;BME280;6243;51.244;6.774;2023-09-18T07:12:35;115150.97;;;-141.28;43.99
12358;BME280;6243;51.244;6.774;2023-09-18T07:15:01;115150.97;;;-141.28;43.63
12358;BME280;6243;51.244;6.774;2023-09-18T07:17:27;115150.97;;;-141.28;44.10
12358;BME280;6243;51.244;6.774;2023-09-18T07:19:53;115150.97;;;-141.28;44.32
12358;BME280;6243;51.244;6.774;2023-09-18T07:22:20;115150.97;;;-141.28;44.24
12358;BME280;6243;51.244;6.774;2023-09-18T07:24:46;115150.97;;;-141.28;44.12
12358;BME280;6243;51.244;6.774;2023-09-18T07:27:11;115150.97;;;-141.28;44.20
12358;BME280;6243;51.244;6.774;2023-09-18T07:29:37;115150.97;;;-141.28;44.01
12358;BME280;6243;51.244;6.774;2023-09-18T07:32:03;115150.97;;;-141.28;45.21
12358;BME280;6243;51.244;6.774;2023-09-18T07:34:29;115150.97;;;-141.28;44.09
12358;BME280;6243;51.244;6.774;2023-09-18T07:36:54;115150.97;;;-141.28;45.71
12358;BME280;6243;51.244;6.774;2023-09-18T07:39:22;115150.97;;;-141.28;44.02
12358;BME280;6243;51.244;6.774;2023-09-18T07:41:47;115150.97;;;-141.28;44.40
12358;BME280;6243;51.244;6.774;2023-09-18T07:44:19;115150.97;;;-141.28;44.21
12358;BME280;6243;51.244;6.774;2023-09-18T07:46:44;115150.97;;;-141.28;44.16
12358;BME280;6243;51.244;6.774;2023-09-18T07:49:10;115150.97;;;-141.28;43.99
12358;BME280;6243;51.244;6.774;2023-09-18T07:51:35;115150.97;;;-141.28;43.85
12358;BME280;6243;51.244;6.774;2023-09-18T07:54:01;115150.97;;;-141.28;43.31
12358;BME280;6243;51.244;6.774;2023-09-18T07:56:28;115150.97;;;-141.28;42.52
12358;BME280;6243;51.244;6.774;2023-09-18T07:58:54;115150.97;;;-141.28;42.58
12358;BME280;6243;51.244;6.774;2023-09-18T08:01:19;115150.97;;;-141.28;43.40
12358;BME280;6243;51.244;6.774;2023-09-18T08:03:45;115150.97;;;-141.28;42.90
12358;BME280;6243;51.244;6.774;2023-09-18T08:06:11;115150.97;;;-141.28;42.71
12358;BME280;6243;51.244;6.774;2023-09-18T08:08:36;115150.97;;;-141.28;42.61
12358;BME280;6243;51.244;6.774;2023-09-18T08:11:07;115150.97;;;-141.28;43.21
12358;BME280;6243;51.244;6.774;2023-09-18T08:13:34;115150.97;;;-141.28;42.83
12358;BME280;6243;51.244;6.774;2023-09-18T08:16:00;115150.97;;;-141.28;42.15
12358;BME280;6243;51.244;6.774;2023-09-18T08:18:26;115150.97;;;-141.28;42.94
12358;BME280;6243;51.244;6.774;2023-09-18T08:20:51;115150.97;;;-141.28;42.15
12358;BME280;6243;51.244;6.774;2023-09-18T08:23:17;115150.97;;;-141.28;42.77
12358;BME280;6243;51.244;6.774;2023-09-18T08:25:42;115150.97;;;-141.28;42.48
12358;BME280;6243;51.244;6.774;2023-09-18T08:28:08;115150.97;;;-141.28;42.51
12358;BME280;6243;51.244;6.774;2023-09-18T08:30:35;115150.97;;;-141.28;42.08
12358;BME280;6243;51.244;6.774;2023-09-18T08:33:01;115150.97;;;-141.28;42.66
12358;BME280;6243;51.244;6.774;2023-09-18T08:35:27;115150.97;;;-141.28;42.18
12358;BME280;6243;51.244;6.774;2023-09-18T08:37:52;115150.97;;;-141.28;43.07
12358;BME280;6243;51.244;6.774;2023-09-18T08:40:19;115150.97;;;-141.28;42.56
12358;BME280;6243;51.244;6.774;2023-09-18T08:42:46;115150.97;;;-141.28;42.65
12358;BME280;6243;51.244;6.774;2023-09-18T08:45:15;115150.97;;;-141.28;42.23
12358;BME280;6243;51.244;6.774;2023-09-18T08:47:45;115150.97;;;-141.28;41.95
12358;BME280;6243;51.244;6.774;2023-09-18T08:50:12;115150.97;;;-141.28;42.10
12358;BME280;6243;51.244;6.774;2023-09-18T08:52:38;115150.97;;;-141.28;41.68
12358;BME280;6243;51.244;6.774;2023-09-18T08:55:06;115150.97;;;-141.28;41.25
12358;BME280;6243;51.244;6.774;2023-09-18T08:57:34;115150.97;;;-141.28;41.33
12358;BME280;6243;51.244;6.774;2023-09-18T09:00:00;115150.97;;;-141.28;41.66
12358;BME280;6243;51.244;6.774;2023-09-18T09:02:25;115150.97;;;-141.28;41.85
12358;BME280;6243;51.244;6.774;2023-09-18T09:04:53;115150.97;;;-141.28;41.50
12358;BME280;6243;51.244;6.774;2023-09-18T09:07:18;115150.97;;;-141.28;41.44
12358;BME280;6243;51.244;6.774;2023-09-18T09:09:44;115150.97;;;-141.28;41.24
12358;BME280;6243;51.244;6.774;2023-09-18T09:12:10;115150.97;;;-141.28;41.59
12358;BME280;6243;51.244;6.774;2023-09-18T09:14:36;115150.97;;;-141.28;41.34
12358;BME280;6243;51.244;6.774;2023-09-18T09:17:01;115150.97;;;-141.28;41.29
12358;BME280;6243;51.244;6.774;2023-09-18T09:19:29;115150.97;;;-141.28;41.30
12358;BME280;6243;51.244;6.774;2023-09-18T09:21:56;115150.97;;;-141.28;41.70
12358;BME280;6243;51.244;6.774;2023-09-18T09:24:35;115150.97;;;-141.28;41.41
12358;BME280;6243;51.244;6.774;2023-09-18T09:27:01;115150.97;;;-141.28;40.87
12358;BME280;6243;51.244;6.774;2023-09-18T09:29:27;115150.97;;;-141.28;40.56
12358;BME280;6243;51.244;6.774;2023-09-18T09:31:53;115150.97;;;-141.28;41.34
12358;BME280;6243;51.244;6.774;2023-09-18T09:34:24;115150.97;;;-141.28;40.95
12358;BME280;6243;51.244;6.774;2023-09-18T09:36:54;115150.97;;;-141.28;41.16
12358;BME280;6243;51.244;6.774;2023-09-18T09:39:21;115150.97;;;-141.28;40.90
12358;BME280;6243;51.244;6.774;2023-09-18T09:41:47;115150.97;;;-141.28;41.38
12358;BME280;6243;51.244;6.774;2023-09-18T09:44:13;115150.97;;;-141.28;41.07
12358;BME280;6243;51.244;6.774;2023-09-18T09:46:45;115150.97;;;-141.28;40.76
12358;BME280;6243;51.244;6.774;2023-09-18T09:49:11;115150.97;;;-141.28;40.69
12358;BME280;6243;51.244;6.774;2023-09-18T09:51:36;115150.97;;;-141.28;40.61
12358;BME280;6243;51.244;6.774;2023-09-18T09:54:02;115150.97;;;-141.28;40.46
12358;BME280;6243;51.244;6.774;2023-09-18T09:56:42;115150.97;;;-141.28;39.71
12358;BME280;6243;51.244;6.774;2023-09-18T09:59:08;115150.97;;;-141.28;39.82
12358;BME280;6243;51.244;6.774;2023-09-18T10:01:35;115150.97;;;-141.28;39.94
12358;BME280;6243;51.244;6.774;2023-09-18T10:04:03;115150.97;;;-141.28;39.96
12358;BME280;6243;51.244;6.774;2023-09-18T10:06:34;115150.97;;;-141.28;40.13
12358;BME280;6243;51.244;6.774;2023-09-18T10:09:00;115150.97;;;-141.28;39.95
12358;BME280;6243;51.244;6.774;2023-09-18T10:11:26;115150.97;;;-141.28;39.75
12358;BME280;6243;51.244;6.774;2023-09-18T10:13:58;115150.97;;;-141.28;39.02
12358;BME280;6243;51.244;6.774;2023-09-18T10:16:25;115150.97;;;-141.28;39.85
12358;BME280;6243;51.244;6.774;2023-09-18T10:18:56;115150.97;;;-141.28;39.19
12358;BME280;6243;51.244;6.774;2023-09-18T10:21:26;115150.97;;;-141.28;38.81
12358;BME280;6243;51.244;6.774;2023-09-18T10:23:59;115150.97;;;-141.28;38.66
12358;BME280;6243;51.244;6.774;2023-09-18T10:26:32;115150.97;;;-141.28;38.10
12358;BME280;6243;51.244;6.774;2023-09-18T10:29:03;115150.97;;;-141.28;38.28
12358;BME280;6243;51.244;6.774;2023-09-18T10:31:29;115150.97;;;-141.28;38.10
12358;BME280;6243;51.244;6.774;2023-09-18T10:33:57;115150.97;;;-141.28;37.44
12358;BME280;6243;51.244;6.774;2023-09-18T10:36:24;115150.97;;;-141.28;37.32
12358;BME280;6243;51.244;6.774;2023-09-18T10:38:51;115150.97;;;-141.28;36.99
12358;BME280;6243;51.244;6.774;2023-09-18T10:41:19;115150.97;;;-141.28;37.02
12358;BME280;6243;51.244;6.774;2023-09-18T10:43:46;115150.97;;;-141.28;36.54
12358;BME280;6243;51.244;6.774;2023-09-18T10:46:13;115150.97;;;-141.28;36.32
12358;BME280;6243;51.244;6.774;2023-09-18T10:48:40;115150.97;;;-141.28;35.56
12358;BME280;6243;51.244;6.774;2023-09-18T10:51:06;115150.97;;;-141.28;35.96
12358;BME280;6243;51.244;6.774;2023-09-18T10:53:31;115150.97;;;-141.28;35.64
12358;BME280;6243;51.244;6.774;2023-09-18T10:55:57;115150.97;;;-141.28;35.83
12358;BME280;6243;51.244;6.774;2023-09-18T10:58:24;115150.97;;;-141.28;36.33
12358;BME280;6243;51.244;6.774;2023-09-18T11:00:50;115150.97;;;-141.28;35.21
12358;BME280;6243;51.244;6.774;2023-09-18T11:03:18;115150.97;;;-141.28;35.69
12358;BME280;6243;51.244;6.774;2023-09-18T11:05:44;115150.97;;;-141.28;35.53
12358;BME280;6243;51.244;6.774;2023-09-18T11:08:27;115150.97;;;-141.28;35.38
12358;BME280;6243;51.244;6.774;2023-09-18T11:11:03;115150.97;;;-141.28;34.57
12358;BME280;6243;51.244;6.774;2023-09-18T11:13:34;115150.97;;;-141.28;35.25
12358;BME280;6243;51.244;6.774;2023-09-18T11:16:01;115150.97;;;-141.28;34.64
12358;BME280;6243;51.244;6.774;2023-09-18T11:18:33;115150.97;;;-141.28;34.91
12358;BME280;6243;51.244;6.774;2023-09-18T11:21:09;115150.97;;;-141.28;34.65
12358;BME280;6243;51.244;6.774;2023-09-18T11:23:35;115150.97;;;-141.28;35.04
12358;BME280;6243;51.244;6.774;2023-09-18T11:26:04;115150.97;;;-141.28;35.10
12358;BME280;6243;51.244;6.774;2023-09-18T11:28:29;115150.97;;;-141.28;34.87
12358;BME280;6243;51.244;6.774;2023-09-18T11:30:57;115150.97;;;-141.28;34.84
12358;BME280;6243;51.244;6.774;2023-09-18T11:33:37;115150.97;;;-141.28;34.97
12358;BME280;6243;51.244;6.774;2023-09-18T11:36:05;115150.97;;;-141.28;34.66
12358;BME280;6243;51.244;6.774;2023-09-18T11:38:31;115150.97;;;-141.28;34.82
12358;BME280;6243;51.244;6.774;2023-09-18T11:40:57;115150.97;;;-141.28;35.05
12358;BME280;6243;51.244;6.774;2023-09-18T11:43:25;115150.97;;;-141.28;34.77
12358;BME280;6243;51.244;6.774;2023-09-18T11:45:52;115150.97;;;-141.28;35.70
12358;BME280;6243;51.244;6.774;2023-09-18T11:48:18;115150.97;;;-141.28;35.43
12358;BME280;6243;51.244;6.774;2023-09-18T11:50:46;115150.97;;;-141.28;35.03
12358;BME280;6243;51.244;6.774;2023-09-18T11:53:12;115150.97;;;-141.28;35.10
12358;BME280;6243;51.244;6.774;2023-09-18T11:55:39;115150.97;;;-141.28;35.41
12358;BME280;6243;51.244;6.774;2023-09-18T11:58:05;115150.97;;;-141.28;36.15
12358;BME280;6243;51.244;6.774;2023-09-18T12:00:31;115150.97;;;-141.28;35.35
12358;BME280;6243;51.244;6.774;2023-09-18T12:02:56;115150.97;;;-141.28;35.26
12358;BME280;6243;51.244;6.774;2023-09-18T12:05:23;115150.97;;;-141.28;35.07
12358;BME280;6243;51.244;6.774;2023-09-18T12:07:50;115150.97;;;-141.28;35.45
12358;BME280;6243;51.244;6.774;2023-09-18T12:10:16;115150.97;;;-141.28;35.79
12358;BME280;6243;51.244;6.774;2023-09-18T12:12:43;115150.97;;;-141.28;35.69
12358;BME280;6243;51.244;6.774;2023-09-18T12:15:11;115150.97;;;-141.28;35.49
12358;BME280;6243;51.244;6.774;2023-09-18T12:17:36;115150.97;;;-141.28;35.36
12358;BME280;6243;51.244;6.774;2023-09-18T12:20:02;115150.97;;;-141.28;34.89
12358;BME280;6243;51.244;6.774;2023-09-18T12:22:29;115150.97;;;-141.28;34.80
12358;BME280;6243;51.244;6.774;2023-09-18T12:25:09;115150.97;;;-141.28;34.55
12358;BME280;6243;51.244;6.774;2023-09-18T12:27:35;115150.97;;;-141.28;34.48
12358;BME280;6243;51.244;6.774;2023-09-18T12:30:02;115150.97;;;-141.28;34.36
12358;BME280;6243;51.244;6.774;2023-09-18T12:32:29;115150.97;;;-141.28;34.25
12358;BME280;6243;51.244;6.774;2023-09-18T12:34:54;115150.97;;;-141.28;35.06
12358;BME280;6243;51.244;6.774;2023-09-18T12:37:20;115150.97;;;-141.28;34.33